sensor_id;sensor_type;location;lat;lon;timestamp;P1;durP1;ratioP1;P2;durP2;ratioP2
59314;SDS011;46521;50.160;20.802;2023-04-03T00:07:27;8.30;;;3.80;;
59314;SDS011;46521;50.160;20.802;2023-04-03T00:17:29;8.50;;;4.60;;
59314;SDS011;46521;50.160;20.802;2023-04-03T00:27:30;7.75;;;3.55;;
59314;SDS011;46521;50.160;20.802;2023-04-03T00:37:32;7.25;;;3.45;;
59314;SDS011;46521;50.160;20.802;2023-04-03T00:47:33;7.05;;;3.45;;
59314;SDS011;46521;50.160;20.802;2023-04-03T00:57:35;6.95;;;4.05;;
59314;SDS011;46521;50.160;20.802;2023-04-03T01:07:38;7.70;;;3.90;;
59314;SDS011;46521;50.160;20.802;2023-04-03T01:17:45;8.80;;;4.20;;
59314;SDS011;46521;50.160;20.802;2023-04-03T01:27:47;8.13;;;4.10;;
59314;SDS011;46521;50.160;20.802;2023-04-03T01:37:48;8.00;;;4.15;;
59314;SDS011;46521;50.160;20.802;2023-04-03T01:47:50;9.60;;;4.40;;
59314;SDS011;46521;50.160;20.802;2023-04-03T01:57:51;6.60;;;3.80;;
59314;SDS011;46521;50.160;20.802;2023-04-03T02:07:53;6.80;;;3.20;;
59314;SDS011;46521;50.160;20.802;2023-04-03T02:17:54;6.85;;;3.65;;
59314;SDS011;46521;50.160;20.802;2023-04-03T02:27:56;7.80;;;4.10;;
59314;SDS011;46521;50.160;20.802;2023-04-03T02:37:58;8.30;;;4.05;;
59314;SDS011;46521;50.160;20.802;2023-04-03T02:47:59;7.95;;;4.20;;
59314;SDS011;46521;50.160;20.802;2023-04-03T02:58:01;9.30;;;4.00;;
59314;SDS011;46521;50.160;20.802;2023-04-03T03:08:02;8.37;;;3.77;;
59314;SDS011;46521;50.160;20.802;2023-04-03T03:18:04;6.80;;;3.00;;
59314;SDS011;46521;50.160;20.802;2023-04-03T03:28:06;7.65;;;3.05;;
59314;SDS011;46521;50.160;20.802;2023-04-03T03:38:08;6.20;;;3.00;;
59314;SDS011;46521;50.160;20.802;2023-04-03T03:48:10;6.70;;;3.20;;
59314;SDS011;46521;50.160;20.802;2023-04-03T03:58:11;6.63;;;3.13;;
59314;SDS011;46521;50.160;20.802;2023-04-03T04:08:13;8.00;;;3.90;;
59314;SDS011;46521;50.160;20.802;2023-04-03T04:18:14;8.70;;;3.90;;
59314;SDS011;46521;50.160;20.802;2023-04-03T04:28:16;7.40;;;3.40;;
59314;SDS011;46521;50.160;20.802;2023-04-03T04:38:18;7.10;;;3.30;;
59314;SDS011;46521;50.160;20.802;2023-04-03T04:48:19;7.10;;;3.00;;
59314;SDS011;46521;50.160;20.802;2023-04-03T04:58:21;5.60;;;2.50;;
59314;SDS011;46521;50.160;20.802;2023-04-03T05:08:22;13.90;;;5.50;;
59314;SDS011;46521;50.160;20.802;2023-04-03T05:18:24;6.80;;;2.80;;
59314;SDS011;46521;50.160;20.802;2023-04-03T05:28:26;6.20;;;2.83;;
59314;SDS011;46521;50.160;20.802;2023-04-03T05:38:27;7.60;;;2.80;;
59314;SDS011;46521;50.160;20.802;2023-04-03T05:48:29;8.45;;;3.85;;
59314;SDS011;46521;50.160;20.802;2023-04-03T05:58:31;6.20;;;2.90;;
59314;SDS011;46521;50.160;20.802;2023-04-03T06:08:33;6.60;;;3.30;;
59314;SDS011;46521;50.160;20.802;2023-04-03T06:18:35;8.45;;;3.40;;
59314;SDS011;46521;50.160;20.802;2023-04-03T06:28:37;6.90;;;3.20;;
59314;SDS011;46521;50.160;20.802;2023-04-03T06:38:38;8.70;;;3.90;;
59314;SDS011;46521;50.160;20.802;2023-04-03T06:48:40;7.70;;;3.00;;
59314;SDS011;46521;50.160;20.802;2023-04-03T06:58:42;8.60;;;3.20;;
59314;SDS011;46521;50.160;20.802;2023-04-03T07:08:45;8.20;;;3.90;;
59314;SDS011;46521;50.160;20.802;2023-04-03T07:18:47;9.65;;;4.95;;
59314;SDS011;46521;50.160;20.802;2023-04-03T07:28:49;39.80;;;18.00;;
59314;SDS011;46521;50.160;20.802;2023-04-03T07:38:50;43.10;;;22.25;;
59314;SDS011;46521;50.160;20.802;2023-04-03T07:48:52;36.10;;;20.85;;
59314;SDS011;46521;50.160;20.802;2023-04-03T07:58:53;33.37;;;14.90;;
59314;SDS011;46521;50.160;20.802;2023-04-03T08:08:55;30.35;;;16.35;;
59314;SDS011;46521;50.160;20.802;2023-04-03T08:18:56;27.70;;;15.40;;
59314;SDS011;46521;50.160;20.802;2023-04-03T08:28:58;21.50;;;12.70;;
59314;SDS011;46521;50.160;20.802;2023-04-03T08:39:00;13.85;;;7.70;;
59314;SDS011;46521;50.160;20.802;2023-04-03T08:49:02;10.25;;;4.70;;
59314;SDS011;46521;50.160;20.802;2023-04-03T08:59:10;19.67;;;10.13;;
59314;SDS011;46521;50.160;20.802;2023-04-03T09:29:32;11.30;;;6.10;;
59314;SDS011;46521;50.160;20.802;2023-04-03T09:39:49;11.15;;;4.85;;
59314;SDS011;46521;50.160;20.802;2023-04-03T09:50:18;12.80;;;5.10;;
59314;SDS011;46521;50.160;20.802;2023-04-03T10:10:26;9.30;;;3.70;;
59314;SDS011;46521;50.160;20.802;2023-04-03T11:01:38;9.65;;;3.70;;
59314;SDS011;46521;50.160;20.802;2023-04-03T11:11:43;9.60;;;3.90;;
59314;SDS011;46521;50.160;20.802;2023-04-03T11:42:32;23.03;;;10.00;;
59314;SDS011;46521;50.160;20.802;2023-04-03T12:02:39;13.00;;;4.20;;
59314;SDS011;46521;50.160;20.802;2023-04-03T12:12:41;10.65;;;4.45;;
59314;SDS011;46521;50.160;20.802;2023-04-03T12:23:03;11.65;;;5.30;;
59314;SDS011;46521;50.160;20.802;2023-04-03T12:33:36;9.55;;;4.60;;
59314;SDS011;46521;50.160;20.802;2023-04-03T13:04:30;9.75;;;3.75;;
59314;SDS011;46521;50.160;20.802;2023-04-03T13:14:32;9.60;;;3.20;;
59314;SDS011;46521;50.160;20.802;2023-04-03T13:24:35;12.90;;;5.30;;
59314;SDS011;46521;50.160;20.802;2023-04-03T13:34:41;9.25;;;3.35;;
59314;SDS011;46521;50.160;20.802;2023-04-03T13:44:43;10.43;;;3.90;;
59314;SDS011;46521;50.160;20.802;2023-04-03T13:54:45;22.55;;;9.90;;
59314;SDS011;46521;50.160;20.802;2023-04-03T14:04:50;31.95;;;12.90;;
59314;SDS011;46521;50.160;20.802;2023-04-03T14:14:57;14.30;;;6.80;;
59314;SDS011;46521;50.160;20.802;2023-04-03T14:24:59;25.90;;;12.40;;
59314;SDS011;46521;50.160;20.802;2023-04-03T14:35:01;13.05;;;6.45;;
59314;SDS011;46521;50.160;20.802;2023-04-03T14:45:05;12.00;;;4.60;;
59314;SDS011;46521;50.160;20.802;2023-04-03T14:55:12;8.00;;;3.50;;
59314;SDS011;46521;50.160;20.802;2023-04-03T15:05:16;7.70;;;3.30;;
59314;SDS011;46521;50.160;20.802;2023-04-03T15:15:19;8.00;;;3.20;;
59314;SDS011;46521;50.160;20.802;2023-04-03T15:25:21;12.60;;;6.15;;
59314;SDS011;46521;50.160;20.802;2023-04-03T15:35:23;13.80;;;3.90;;
59314;SDS011;46521;50.160;20.802;2023-04-03T15:45:26;11.80;;;4.20;;
59314;SDS011;46521;50.160;20.802;2023-04-03T15:55:31;10.20;;;4.30;;
59314;SDS011;46521;50.160;20.802;2023-04-03T16:05:35;8.30;;;3.80;;
59314;SDS011;46521;50.160;20.802;2023-04-03T16:15:39;9.40;;;4.10;;
59314;SDS011;46521;50.160;20.802;2023-04-03T16:25:41;11.65;;;5.30;;
59314;SDS011;46521;50.160;20.802;2023-04-03T16:35:47;39.30;;;16.80;;
59314;SDS011;46521;50.160;20.802;2023-04-03T16:45:49;19.15;;;8.60;;
59314;SDS011;46521;50.160;20.802;2023-04-03T16:55:51;79.70;;;29.80;;
59314;SDS011;46521;50.160;20.802;2023-04-03T17:05:53;16.00;;;6.60;;
59314;SDS011;46521;50.160;20.802;2023-04-03T17:15:54;14.47;;;7.67;;
59314;SDS011;46521;50.160;20.802;2023-04-03T17:25:56;16.00;;;7.60;;
59314;SDS011;46521;50.160;20.802;2023-04-03T17:35:58;12.15;;;5.25;;
59314;SDS011;46521;50.160;20.802;2023-04-03T17:46:02;18.83;;;8.40;;
59314;SDS011;46521;50.160;20.802;2023-04-03T17:56:10;19.00;;;10.00;;
59314;SDS011;46521;50.160;20.802;2023-04-03T18:06:15;20.85;;;9.45;;
59314;SDS011;46521;50.160;20.802;2023-04-03T18:16:17;21.10;;;9.10;;
59314;SDS011;46521;50.160;20.802;2023-04-03T18:26:19;35.47;;;15.07;;
59314;SDS011;46521;50.160;20.802;2023-04-03T18:36:21;30.75;;;14.85;;
59314;SDS011;46521;50.160;20.802;2023-04-03T18:46:24;22.90;;;11.63;;
59314;SDS011;46521;50.160;20.802;2023-04-03T18:56:26;20.65;;;9.25;;
59314;SDS011;46521;50.160;20.802;2023-04-03T19:06:28;41.40;;;23.00;;
59314;SDS011;46521;50.160;20.802;2023-04-03T19:16:29;66.80;;;36.20;;
59314;SDS011;46521;50.160;20.802;2023-04-03T19:26:30;37.45;;;18.75;;
59314;SDS011;46521;50.160;20.802;2023-04-03T19:36:32;18.20;;;9.10;;
59314;SDS011;46521;50.160;20.802;2023-04-03T19:46:34;19.30;;;9.10;;
59314;SDS011;46521;50.160;20.802;2023-04-03T19:56:36;15.20;;;8.75;;
59314;SDS011;46521;50.160;20.802;2023-04-03T20:06:37;19.50;;;10.20;;
59314;SDS011;46521;50.160;20.802;2023-04-03T20:16:39;19.00;;;9.20;;
59314;SDS011;46521;50.160;20.802;2023-04-03T20:26:41;12.60;;;5.80;;
59314;SDS011;46521;50.160;20.802;2023-04-03T20:36:46;14.13;;;6.20;;
59314;SDS011;46521;50.160;20.802;2023-04-03T20:46:47;15.25;;;6.80;;
59314;SDS011;46521;50.160;20.802;2023-04-03T20:56:49;16.75;;;7.20;;
59314;SDS011;46521;50.160;20.802;2023-04-03T21:27:33;14.00;;;6.40;;
59314;SDS011;46521;50.160;20.802;2023-04-03T21:37:34;13.50;;;5.75;;
59314;SDS011;46521;50.160;20.802;2023-04-03T21:47:36;12.45;;;5.60;;
59314;SDS011;46521;50.160;20.802;2023-04-03T21:57:38;15.55;;;6.55;;
59314;SDS011;46521;50.160;20.802;2023-04-03T22:07:42;11.70;;;4.70;;
59314;SDS011;46521;50.160;20.802;2023-04-03T22:17:47;13.50;;;5.30;;
59314;SDS011;46521;50.160;20.802;2023-04-03T22:27:49;10.70;;;5.60;;
59314;SDS011;46521;50.160;20.802;2023-04-03T22:37:50;13.00;;;4.90;;
59314;SDS011;46521;50.160;20.802;2023-04-03T22:47:52;14.05;;;5.40;;
59314;SDS011;46521;50.160;20.802;2023-04-03T22:57:58;13.10;;;5.85;;
59314;SDS011;46521;50.160;20.802;2023-04-03T23:07:59;13.27;;;6.13;;
59314;SDS011;46521;50.160;20.802;2023-04-03T23:18:01;13.77;;;6.33;;
59314;SDS011;46521;50.160;20.802;2023-04-03T23:28:02;15.80;;;6.93;;
59314;SDS011;46521;50.160;20.802;2023-04-03T23:38:04;14.35;;;6.20;;
59314;SDS011;46521;50.160;20.802;2023-04-03T23:48:06;16.55;;;8.00;;
